sensor_id;sensor_type;location;lat;lon;timestamp;pressure;altitude;pressure_sealevel;temperature;humidity
44734;BME280;30462;52.446;-1.930;2023-04-15T00:00:18;99700.85547;;;;
44734;BME280;30462;52.446;-1.930;2023-04-15T00:01:18;99705.36328;;;;
44734;BME280;30462;52.446;-1.930;2023-04-15T00:02:18;99707.21875;;;;
44734;BME280;30462;52.446;-1.930;2023-04-15T00:03:18;99708.85938;;;;
44734;BME280;30462;52.446;-1.930;2023-04-15T00:04:17;99707.74219;;;;
44734;BME280;30462;52.446;-1.930;2023-04-15T00:05:18;99708.08203;;;;
44734;BME280;30462;52.446;-1.930;2023-04-15T00:06:18;99707.80859;;;;
44734;BME280;30462;52.446;-1.930;2023-04-15T00:07:18;99709.85547;;;;
44734;BME280;30462;52.446;-1.930;2023-04-15T00:08:18;99705.20313;;;;
44734;BME280;30462;52.446;-1.930;2023-04-15T00:09:18;99711.125;;;;
44734;BME280;30462;52.446;-1.930;2023-04-15T00:10:18;99712.96484;;;;
44734;BME280;30462;52.446;-1.930;2023-04-15T00:11:18;99715.27734;;;;
44734;BME280;30462;52.446;-1.930;2023-04-15T00:12:18;99714.52734;;;;
44734;BME280;30462;52.446;-1.930;2023-04-15T00:13:18;99716.57813;;;;
44734;BME280;30462;52.446;-1.930;2023-04-15T00:14:18;99719.03516;;;;
44734;BME280;30462;52.446;-1.930;2023-04-15T00:15:18;99720.61719;;;;
44734;BME280;30462;52.446;-1.930;2023-04-15T00:16:18;99719.69141;;;;
44734;BME280;30462;52.446;-1.930;2023-04-15T00:17:18;99722.58594;;;;
44734;BME280;30462;52.446;-1.930;2023-04-15T00:18:18;99724.34375;;;;
44734;BME280;30462;52.446;-1.930;2023-04-15T00:19:18;99726.89844;;;;
44734;BME280;30462;52.446;-1.930;2023-04-15T00:20:18;99722.66797;;;;
44734;BME280;30462;52.446;-1.930;2023-04-15T00:21:18;99723.62891;;;;
44734;BME280;30462;52.446;-1.930;2023-04-15T00:22:18;99728.99609;;;;
44734;BME280;30462;52.446;-1.930;2023-04-15T00:23:18;99731.4375;;;;
44734;BME280;30462;52.446;-1.930;2023-04-15T00:24:18;99728.17188;;;;
44734;BME280;30462;52.446;-1.930;2023-04-15T00:25:18;99731.12891;;;;
44734;BME280;30462;52.446;-1.930;2023-04-15T00:26:18;99730.83594;;;;
44734;BME280;30462;52.446;-1.930;2023-04-15T00:27:18;99736.43359;;;;
44734;BME280;30462;52.446;-1.930;2023-04-15T00:28:18;99735.39063;;;;
44734;BME280;30462;52.446;-1.930;2023-04-15T00:29:18;99734.07422;;;;
44734;BME280;30462;52.446;-1.930;2023-04-15T00:30:18;99736.35156;;;;
44734;BME280;30462;52.446;-1.930;2023-04-15T00:31:18;99744.0625;;;;
44734;BME280;30462;52.446;-1.930;2023-04-15T00:32:17;99738.58203;;;;
44734;BME280;30462;52.446;-1.930;2023-04-15T00:33:18;99745.70313;;;;
44734;BME280;30462;52.446;-1.930;2023-04-15T00:34:18;99743.73828;;;;
44734;BME280;30462;52.446;-1.930;2023-04-15T00:35:18;99744.22656;;;;
44734;BME280;30462;52.446;-1.930;2023-04-15T00:36:18;99745.15234;;;;
44734;BME280;30462;52.446;-1.930;2023-04-15T00:37:18;99747.52734;;;;
44734;BME280;30462;52.446;-1.930;2023-04-15T00:38:17;99742.63281;;;;
44734;BME280;30462;52.446;-1.930;2023-04-15T00:39:18;99749.30078;;;;
44734;BME280;30462;52.446;-1.930;2023-04-15T00:40:20;99747.6875;;;;
44734;BME280;30462;52.446;-1.930;2023-04-15T00:41:18;99751.21875;;;;
44734;BME280;30462;52.446;-1.930;2023-04-15T00:42:18;99751.07422;;;;
44734;BME280;30462;52.446;-1.930;2023-04-15T00:43:18;99751.14063;;;;
44734;BME280;30462;52.446;-1.930;2023-04-15T00:44:18;99756.79688;;;;
44734;BME280;30462;52.446;-1.930;2023-04-15T00:45:18;99759.04297;;;;
44734;BME280;30462;52.446;-1.930;2023-04-15T00:46:18;99760.70313;;;;
44734;BME280;30462;52.446;-1.930;2023-04-15T00:47:18;99760.23047;;;;
44734;BME280;30462;52.446;-1.930;2023-04-15T00:48:18;99759.51172;;;;
44734;BME280;30462;52.446;-1.930;2023-04-15T00:49:18;99758.80078;;;;
44734;BME280;30462;52.446;-1.930;2023-04-15T00:50:18;99765.05859;;;;
44734;BME280;30462;52.446;-1.930;2023-04-15T00:51:17;99767.62891;;;;
44734;BME280;30462;52.446;-1.930;2023-04-15T00:52:18;99763.25;;;;
44734;BME280;30462;52.446;-1.930;2023-04-15T00:53:18;99764.17578;;;;
44734;BME280;30462;52.446;-1.930;2023-04-15T00:54:18;99768.99219;;;;
44734;BME280;30462;52.446;-1.930;2023-04-15T00:55:18;99770.83984;;;;
44734;BME280;30462;52.446;-1.930;2023-04-15T00:56:18;99772.25781;;;;
44734;BME280;30462;52.446;-1.930;2023-04-15T00:57:19;99770.17578;;;;
44734;BME280;30462;52.446;-1.930;2023-04-15T00:58:17;99774.71484;;;;
44734;BME280;30462;52.446;-1.930;2023-04-15T00:59:18;99776.66797;;;;
44734;BME280;30462;52.446;-1.930;2023-04-15T01:00:19;99779.98438;;;;
44734;BME280;30462;52.446;-1.930;2023-04-15T01:01:18;99777.02344;;;;
44734;BME280;30462;52.446;-1.930;2023-04-15T01:02:18;99783.42578;;;;
44734;BME280;30462;52.446;-1.930;2023-04-15T01:03:18;99782.46484;;;;
44734;BME280;30462;52.446;-1.930;2023-04-15T01:04:17;99784.88672;;;;
44734;BME280;30462;52.446;-1.930;2023-04-15T01:05:18;99789.02344;;;;
44734;BME280;30462;52.446;-1.930;2023-04-15T01:06:18;99790.48828;;;;
44734;BME280;30462;52.446;-1.930;2023-04-15T01:07:18;99792.8125;;;;
44734;BME280;30462;52.446;-1.930;2023-04-15T01:08:18;99794.74609;;;;
44734;BME280;30462;52.446;-1.930;2023-04-15T01:09:18;99795.30859;;;;
44734;BME280;30462;52.446;-1.930;2023-04-15T01:10:19;99798.66016;;;;
44734;BME280;30462;52.446;-1.930;2023-04-15T01:11:18;99798.05469;;;;
44734;BME280;30462;52.446;-1.930;2023-04-15T01:12:18;99798.33203;;;;
44734;BME280;30462;52.446;-1.930;2023-04-15T01:13:18;99803.28125;;;;
44734;BME280;30462;52.446;-1.930;2023-04-15T01:14:18;99804.96094;;;;
44734;BME280;30462;52.446;-1.930;2023-04-15T01:15:18;99808.625;;;;
44734;BME280;30462;52.446;-1.930;2023-04-15T01:16:18;99808.67969;;;;
44734;BME280;30462;52.446;-1.930;2023-04-15T01:17:18;99812.48438;;;;
44734;BME280;30462;52.446;-1.930;2023-04-15T01:18:18;99811.97656;;;;
44734;BME280;30462;52.446;-1.930;2023-04-15T01:19:18;99817.78906;;;;
44734;BME280;30462;52.446;-1.930;2023-04-15T01:20:18;99814.45703;;;;
44734;BME280;30462;52.446;-1.930;2023-04-15T01:21:18;99818.75781;;;;
44734;BME280;30462;52.446;-1.930;2023-04-15T01:22:18;99819.69141;;;;
44734;BME280;30462;52.446;-1.930;2023-04-15T01:23:18;99819.25391;;;;
44734;BME280;30462;52.446;-1.930;2023-04-15T01:24:18;99819.97266;;;;
44734;BME280;30462;52.446;-1.930;2023-04-15T01:25:18;99821.0625;;;;
44734;BME280;30462;52.446;-1.930;2023-04-15T01:26:18;99824.27344;;;;
44734;BME280;30462;52.446;-1.930;2023-04-15T01:27:18;99823.82031;;;;
44734;BME280;30462;52.446;-1.930;2023-04-15T01:28:18;99827.95313;;;;
44734;BME280;30462;52.446;-1.930;2023-04-15T01:29:17;99828.33203;;;;
44734;BME280;30462;52.446;-1.930;2023-04-15T01:30:18;99827.74219;;;;
44734;BME280;30462;52.446;-1.930;2023-04-15T01:31:18;99829.37891;;;;
44734;BME280;30462;52.446;-1.930;2023-04-15T01:32:18;99833.02344;;;;
44734;BME280;30462;52.446;-1.930;2023-04-15T01:33:18;99831.83203;;;;
44734;BME280;30462;52.446;-1.930;2023-04-15T01:34:18;99830.21094;;;;
44734;BME280;30462;52.446;-1.930;2023-04-15T01:35:18;99830.40625;;;;
44734;BME280;30462;52.446;-1.930;2023-04-15T01:36:18;99832.63672;;;;
44734;BME280;30462;52.446;-1.930;2023-04-15T01:37:18;99831.58203;;;;
44734;BME280;30462;52.446;-1.930;2023-04-15T01:38:18;99834.55859;;;;
44734;BME280;30462;52.446;-1.930;2023-04-15T01:39:18;99835.84375;;;;
44734;BME280;30462;52.446;-1.930;2023-04-15T01:40:18;99841.22656;;;;
44734;BME280;30462;52.446;-1.930;2023-04-15T01:42:18;99846.90234;;;;
44734;BME280;30462;52.446;-1.930;2023-04-15T01:43:18;99847.74609;;;;
44734;BME280;30462;52.446;-1.930;2023-04-15T01:44:17;99852.44531;;;;
44734;BME280;30462;52.446;-1.930;2023-04-15T01:45:18;99854.71094;;;;
44734;BME280;30462;52.446;-1.930;2023-04-15T01:46:18;99851.25;;;;
44734;BME280;30462;52.446;-1.930;2023-04-15T01:47:18;99849.39063;;;;
44734;BME280;30462;52.446;-1.930;2023-04-15T01:48:18;99854.57813;;;;
44734;BME280;30462;52.446;-1.930;2023-04-15T01:49:18;99858.46094;;;;
44734;BME280;30462;52.446;-1.930;2023-04-15T01:50:18;99855.33203;;;;
44734;BME280;30462;52.446;-1.930;2023-04-15T01:51:18;99854.68359;;;;
44734;BME280;30462;52.446;-1.930;2023-04-15T01:52:18;99859.11328;;;;
44734;BME280;30462;52.446;-1.930;2023-04-15T01:53:18;99857.08203;;;;
44734;BME280;30462;52.446;-1.930;2023-04-15T01:54:18;99855.84766;;;;
44734;BME280;30462;52.446;-1.930;2023-04-15T01:55:18;99856.25781;;;;
44734;BME280;30462;52.446;-1.930;2023-04-15T01:56:18;99856.59375;;;;
44734;BME280;30462;52.446;-1.930;2023-04-15T01:57:18;99859.39453;;;;
44734;BME280;30462;52.446;-1.930;2023-04-15T01:58:18;99857.5;;;;
44734;BME280;30462;52.446;-1.930;2023-04-15T01:59:18;99856.35547;;;;
44734;BME280;30462;52.446;-1.930;2023-04-15T02:00:18;99859.75781;;;;
44734;BME280;30462;52.446;-1.930;2023-04-15T02:01:18;99856.96875;;;;
44734;BME280;30462;52.446;-1.930;2023-04-15T02:02:19;99858.66406;;;;
44734;BME280;30462;52.446;-1.930;2023-04-15T02:03:18;99861.32422;;;;
44734;BME280;30462;52.446;-1.930;2023-04-15T02:04:18;99859.99219;;;;
44734;BME280;30462;52.446;-1.930;2023-04-15T02:05:18;99860.30469;;;;
44734;BME280;30462;52.446;-1.930;2023-04-15T02:06:18;99866.71875;;;;
44734;BME280;30462;52.446;-1.930;2023-04-15T02:07:18;99867.05078;;;;
44734;BME280;30462;52.446;-1.930;2023-04-15T02:08:18;99865.34375;;;;
44734;BME280;30462;52.446;-1.930;2023-04-15T02:09:18;99868.44141;;;;
44734;BME280;30462;52.446;-1.930;2023-04-15T02:10:18;99868.08594;;;;
44734;BME280;30462;52.446;-1.930;2023-04-15T02:11:18;99869.04297;;;;
44734;BME280;30462;52.446;-1.930;2023-04-15T02:12:18;99871.77344;;;;
44734;BME280;30462;52.446;-1.930;2023-04-15T02:13:18;99869.96875;;;;
44734;BME280;30462;52.446;-1.930;2023-04-15T02:14:18;99874.39063;;;;
44734;BME280;30462;52.446;-1.930;2023-04-15T02:15:18;99873.86719;;;;
44734;BME280;30462;52.446;-1.930;2023-04-15T02:16:18;99874.37109;;;;
44734;BME280;30462;52.446;-1.930;2023-04-15T02:17:18;99870.10938;;;;
44734;BME280;30462;52.446;-1.930;2023-04-15T02:18:18;99868.40625;;;;
44734;BME280;30462;52.446;-1.930;2023-04-15T02:19:17;99870.03906;;;;
44734;BME280;30462;52.446;-1.930;2023-04-15T02:20:18;99874.25391;;;;
44734;BME280;30462;52.446;-1.930;2023-04-15T02:21:18;99871.4375;;;;
44734;BME280;30462;52.446;-1.930;2023-04-15T02:22:18;99873.01172;;;;
44734;BME280;30462;52.446;-1.930;2023-04-15T02:23:18;99872.16406;;;;
44734;BME280;30462;52.446;-1.930;2023-04-15T02:24:18;99879.10938;;;;
44734;BME280;30462;52.446;-1.930;2023-04-15T02:25:18;99874.61719;;;;
44734;BME280;30462;52.446;-1.930;2023-04-15T02:26:17;99874.25781;;;;
44734;BME280;30462;52.446;-1.930;2023-04-15T02:27:17;99877.85547;;;;
44734;BME280;30462;52.446;-1.930;2023-04-15T02:28:18;99880.34766;;;;
44734;BME280;30462;52.446;-1.930;2023-04-15T02:29:18;99879.83984;;;;
44734;BME280;30462;52.446;-1.930;2023-04-15T02:30:18;99881.13281;;;;
44734;BME280;30462;52.446;-1.930;2023-04-15T02:31:18;99888.20313;;;;
44734;BME280;30462;52.446;-1.930;2023-04-15T02:32:18;99891.60156;;;;
44734;BME280;30462;52.446;-1.930;2023-04-15T02:33:19;99892.08984;;;;
44734;BME280;30462;52.446;-1.930;2023-04-15T02:34:18;99895.74609;;;;
44734;BME280;30462;52.446;-1.930;2023-04-15T02:35:18;99897.67188;;;;
44734;BME280;30462;52.446;-1.930;2023-04-15T02:36:18;99897.60156;;;;
44734;BME280;30462;52.446;-1.930;2023-04-15T02:37:18;99898.96875;;;;
44734;BME280;30462;52.446;-1.930;2023-04-15T02:38:18;99897.63281;;;;
44734;BME280;30462;52.446;-1.930;2023-04-15T02:39:18;99900.99609;;;;
44734;BME280;30462;52.446;-1.930;2023-04-15T02:40:18;99898.375;;;;
44734;BME280;30462;52.446;-1.930;2023-04-15T02:41:18;99901.02734;;;;
44734;BME280;30462;52.446;-1.930;2023-04-15T02:42:18;99897.88672;;;;
44734;BME280;30462;52.446;-1.930;2023-04-15T02:43:17;99896.92578;;;;
44734;BME280;30462;52.446;-1.930;2023-04-15T02:44:18;99899.82422;;;;
44734;BME280;30462;52.446;-1.930;2023-04-15T02:45:17;99897.18359;;;;
44734;BME280;30462;52.446;-1.930;2023-04-15T02:46:17;99898.32422;;;;
44734;BME280;30462;52.446;-1.930;2023-04-15T02:47:18;99900.55469;;;;
44734;BME280;30462;52.446;-1.930;2023-04-15T02:48:18;99899.83203;;;;
44734;BME280;30462;52.446;-1.930;2023-04-15T02:49:18;99901.11719;;;;
44734;BME280;30462;52.446;-1.930;2023-04-15T02:50:18;99904.39453;;;;
44734;BME280;30462;52.446;-1.930;2023-04-15T02:51:18;99906.96094;;;;
44734;BME280;30462;52.446;-1.930;2023-04-15T02:52:18;99906.94141;;;;
44734;BME280;30462;52.446;-1.930;2023-04-15T02:53:18;99908.67969;;;;
44734;BME280;30462;52.446;-1.930;2023-04-15T02:54:18;99910.07813;;;;
44734;BME280;30462;52.446;-1.930;2023-04-15T02:55:17;99911.98047;;;;
44734;BME280;30462;52.446;-1.930;2023-04-15T02:56:18;99913.66016;;;;
44734;BME280;30462;52.446;-1.930;2023-04-15T02:57:18;99910.97656;;;;
44734;BME280;30462;52.446;-1.930;2023-04-15T02:58:18;99906.1875;;;;
44734;BME280;30462;52.446;-1.930;2023-04-15T02:59:18;99907.86328;;;;
44734;BME280;30462;52.446;-1.930;2023-04-15T03:00:18;99905.375;;;;
44734;BME280;30462;52.446;-1.930;2023-04-15T03:01:18;99903.1875;;;;
44734;BME280;30462;52.446;-1.930;2023-04-15T03:02:18;99906.44531;;;;
44734;BME280;30462;52.446;-1.930;2023-04-15T03:03:18;99908.71094;;;;
44734;BME280;30462;52.446;-1.930;2023-04-15T03:04:17;99911.65234;;;;
44734;BME280;30462;52.446;-1.930;2023-04-15T03:05:18;99911.34375;;;;
44734;BME280;30462;52.446;-1.930;2023-04-15T03:06:18;99913.15625;;;;
44734;BME280;30462;52.446;-1.930;2023-04-15T03:07:18;99918.60547;;;;
44734;BME280;30462;52.446;-1.930;2023-04-15T03:08:18;99922.86719;;;;
44734;BME280;30462;52.446;-1.930;2023-04-15T03:09:18;99927.54688;;;;
44734;BME280;30462;52.446;-1.930;2023-04-15T03:10:18;99926.03906;;;;
44734;BME280;30462;52.446;-1.930;2023-04-15T03:11:18;99925.78906;;;;
44734;BME280;30462;52.446;-1.930;2023-04-15T03:12:18;99930.66406;;;;
44734;BME280;30462;52.446;-1.930;2023-04-15T03:13:18;99933.51563;;;;
44734;BME280;30462;52.446;-1.930;2023-04-15T03:14:18;99934.36719;;;;
44734;BME280;30462;52.446;-1.930;2023-04-15T03:15:18;99935.62109;;;;
44734;BME280;30462;52.446;-1.930;2023-04-15T03:16:18;99935.46094;;;;
44734;BME280;30462;52.446;-1.930;2023-04-15T03:17:18;99940.13281;;;;
44734;BME280;30462;52.446;-1.930;2023-04-15T03:18:19;99941.80078;;;;
44734;BME280;30462;52.446;-1.930;2023-04-15T03:19:18;99942.89453;;;;
44734;BME280;30462;52.446;-1.930;2023-04-15T03:20:18;99945.11719;;;;
44734;BME280;30462;52.446;-1.930;2023-04-15T03:21:18;99949.78906;;;;
44734;BME280;30462;52.446;-1.930;2023-04-15T03:22:18;99946.875;;;;
44734;BME280;30462;52.446;-1.930;2023-04-15T03:23:18;99950.03516;;;;
44734;BME280;30462;52.446;-1.930;2023-04-15T03:24:19;99955.15625;;;;
44734;BME280;30462;52.446;-1.930;2023-04-15T03:25:18;99955.83594;;;;
44734;BME280;30462;52.446;-1.930;2023-04-15T03:27:18;99958.46484;;;;
44734;BME280;30462;52.446;-1.930;2023-04-15T03:28:18;99957.6875;;;;
44734;BME280;30462;52.446;-1.930;2023-04-15T03:29:18;99962.12891;;;;
44734;BME280;30462;52.446;-1.930;2023-04-15T03:30:18;99966.64453;;;;
44734;BME280;30462;52.446;-1.930;2023-04-15T03:31:18;99965.23047;;;;
44734;BME280;30462;52.446;-1.930;2023-04-15T03:32:18;99966.73438;;;;
44734;BME280;30462;52.446;-1.930;2023-04-15T03:33:18;99968.78125;;;;
44734;BME280;30462;52.446;-1.930;2023-04-15T03:34:18;99969.80859;;;;
44734;BME280;30462;52.446;-1.930;2023-04-15T03:35:18;99968.75391;;;;
44734;BME280;30462;52.446;-1.930;2023-04-15T03:36:18;99975.91797;;;;
44734;BME280;30462;52.446;-1.930;2023-04-15T03:37:18;99972.5;;;;
44734;BME280;30462;52.446;-1.930;2023-04-15T03:38:18;99969.98828;;;;
44734;BME280;30462;52.446;-1.930;2023-04-15T03:39:18;99978.57031;;;;
44734;BME280;30462;52.446;-1.930;2023-04-15T03:40:19;99970;;;;
44734;BME280;30462;52.446;-1.930;2023-04-15T03:41:18;99976.67578;;;;
44734;BME280;30462;52.446;-1.930;2023-04-15T03:42:18;99978.95313;;;;
44734;BME280;30462;52.446;-1.930;2023-04-15T03:43:18;99976.55078;;;;
44734;BME280;30462;52.446;-1.930;2023-04-15T03:44:18;99979.64453;;;;
44734;BME280;30462;52.446;-1.930;2023-04-15T03:45:18;99975.38672;;;;
44734;BME280;30462;52.446;-1.930;2023-04-15T03:46:18;99979.41797;;;;
44734;BME280;30462;52.446;-1.930;2023-04-15T03:47:18;99984.10156;;;;
44734;BME280;30462;52.446;-1.930;2023-04-15T03:48:18;99982.44531;;;;
44734;BME280;30462;52.446;-1.930;2023-04-15T03:49:18;99984.74609;;;;
44734;BME280;30462;52.446;-1.930;2023-04-15T03:50:18;99988.69922;;;;
44734;BME280;30462;52.446;-1.930;2023-04-15T03:51:18;99991.89844;;;;
44734;BME280;30462;52.446;-1.930;2023-04-15T03:52:18;99994.41406;;;;
44734;BME280;30462;52.446;-1.930;2023-04-15T03:53:18;99997.79688;;;;
44734;BME280;30462;52.446;-1.930;2023-04-15T03:54:18;99999.54688;;;;
44734;BME280;30462;52.446;-1.930;2023-04-15T03:55:18;100000.0078;;;;
44734;BME280;30462;52.446;-1.930;2023-04-15T03:56:18;100003.207;;;;
44734;BME280;30462;52.446;-1.930;2023-04-15T03:57:18;100004.8477;;;;
44734;BME280;30462;52.446;-1.930;2023-04-15T03:58:18;100006.8281;;;;
44734;BME280;30462;52.446;-1.930;2023-04-15T03:59:18;100009.1523;;;;
44734;BME280;30462;52.446;-1.930;2023-04-15T04:00:18;100010.4531;;;;
44734;BME280;30462;52.446;-1.930;2023-04-15T04:01:18;100014.4141;;;;
44734;BME280;30462;52.446;-1.930;2023-04-15T04:02:18;100015.3867;;;;
44734;BME280;30462;52.446;-1.930;2023-04-15T04:03:18;100017.5625;;;;
44734;BME280;30462;52.446;-1.930;2023-04-15T04:04:18;100014.6094;;;;
44734;BME280;30462;52.446;-1.930;2023-04-15T04:05:18;100023.3789;;;;
44734;BME280;30462;52.446;-1.930;2023-04-15T04:06:18;100022.2578;;;;
44734;BME280;30462;52.446;-1.930;2023-04-15T04:07:18;100024.6406;;;;
44734;BME280;30462;52.446;-1.930;2023-04-15T04:08:18;100024.5391;;;;
44734;BME280;30462;52.446;-1.930;2023-04-15T04:09:18;100024.5156;;;;
44734;BME280;30462;52.446;-1.930;2023-04-15T04:10:18;100024.6602;;;;
44734;BME280;30462;52.446;-1.930;2023-04-15T04:11:18;100022.9375;;;;
44734;BME280;30462;52.446;-1.930;2023-04-15T04:12:18;100023.9531;;;;
44734;BME280;30462;52.446;-1.930;2023-04-15T04:13:18;100020.4727;;;;
44734;BME280;30462;52.446;-1.930;2023-04-15T04:14:18;100018.332;;;;
44734;BME280;30462;52.446;-1.930;2023-04-15T04:15:18;100020.3086;;;;
44734;BME280;30462;52.446;-1.930;2023-04-15T04:16:18;100024.5938;;;;
44734;BME280;30462;52.446;-1.930;2023-04-15T04:17:18;100017.5508;;;;
44734;BME280;30462;52.446;-1.930;2023-04-15T04:18:18;100023.3242;;;;
44734;BME280;30462;52.446;-1.930;2023-04-15T04:19:18;100023.4336;;;;
44734;BME280;30462;52.446;-1.930;2023-04-15T04:20:17;100020.7148;;;;
44734;BME280;30462;52.446;-1.930;2023-04-15T04:21:18;100022.0078;;;;
44734;BME280;30462;52.446;-1.930;2023-04-15T04:23:18;100022.6563;;;;
44734;BME280;30462;52.446;-1.930;2023-04-15T04:24:18;100026.9453;;;;
44734;BME280;30462;52.446;-1.930;2023-04-15T04:25:18;100027.6641;;;;
44734;BME280;30462;52.446;-1.930;2023-04-15T04:26:18;100031.4492;;;;
44734;BME280;30462;52.446;-1.930;2023-04-15T04:27:18;100031.9961;;;;
44734;BME280;30462;52.446;-1.930;2023-04-15T04:28:18;100038.5586;;;;
44734;BME280;30462;52.446;-1.930;2023-04-15T04:29:18;100038.0938;;;;
44734;BME280;30462;52.446;-1.930;2023-04-15T04:30:18;100040.5352;;;;
44734;BME280;30462;52.446;-1.930;2023-04-15T04:31:18;100038.8438;;;;
44734;BME280;30462;52.446;-1.930;2023-04-15T04:32:18;100047.8594;;;;
44734;BME280;30462;52.446;-1.930;2023-04-15T04:33:18;100050.1367;;;;
44734;BME280;30462;52.446;-1.930;2023-04-15T04:34:17;100052.5508;;;;
44734;BME280;30462;52.446;-1.930;2023-04-15T04:35:17;100052.207;;;;
44734;BME280;30462;52.446;-1.930;2023-04-15T04:36:18;100052.3789;;;;
44734;BME280;30462;52.446;-1.930;2023-04-15T04:37:18;100052.1445;;;;
44734;BME280;30462;52.446;-1.930;2023-04-15T04:38:18;100053.8867;;;;
44734;BME280;30462;52.446;-1.930;2023-04-15T04:39:18;100053.9141;;;;
44734;BME280;30462;52.446;-1.930;2023-04-15T04:40:18;100057.1875;;;;
44734;BME280;30462;52.446;-1.930;2023-04-15T04:41:18;100058.7266;;;;
44734;BME280;30462;52.446;-1.930;2023-04-15T04:42:18;100063.6992;;;;
44734;BME280;30462;52.446;-1.930;2023-04-15T04:43:18;100064.4375;;;;
44734;BME280;30462;52.446;-1.930;2023-04-15T04:44:18;100062.9258;;;;
44734;BME280;30462;52.446;-1.930;2023-04-15T04:45:18;100067.8555;;;;
44734;BME280;30462;52.446;-1.930;2023-04-15T04:46:18;100070.2813;;;;
44734;BME280;30462;52.446;-1.930;2023-04-15T04:47:18;100067.8867;;;;
44734;BME280;30462;52.446;-1.930;2023-04-15T04:48:18;100075.457;;;;
44734;BME280;30462;52.446;-1.930;2023-04-15T04:49:18;100077.418;;;;
44734;BME280;30462;52.446;-1.930;2023-04-15T04:50:18;100079.6875;;;;
44734;BME280;30462;52.446;-1.930;2023-04-15T04:51:18;100079.9023;;;;
44734;BME280;30462;52.446;-1.930;2023-04-15T04:52:18;100078.7383;;;;
44734;BME280;30462;52.446;-1.930;2023-04-15T04:53:17;100083.3398;;;;
44734;BME280;30462;52.446;-1.930;2023-04-15T04:54:18;100084.7344;;;;
44734;BME280;30462;52.446;-1.930;2023-04-15T04:55:18;100086.8906;;;;
44734;BME280;30462;52.446;-1.930;2023-04-15T04:56:18;100088.7734;;;;
44734;BME280;30462;52.446;-1.930;2023-04-15T04:57:18;100092.3477;;;;
44734;BME280;30462;52.446;-1.930;2023-04-15T04:58:18;100091.1875;;;;
44734;BME280;30462;52.446;-1.930;2023-04-15T04:59:18;100089.125;;;;
44734;BME280;30462;52.446;-1.930;2023-04-15T05:00:18;100091.6133;;;;
44734;BME280;30462;52.446;-1.930;2023-04-15T05:01:18;100092.3203;;;;
44734;BME280;30462;52.446;-1.930;2023-04-15T05:02:18;100092.5781;;;;
44734;BME280;30462;52.446;-1.930;2023-04-15T05:03:18;100095.8516;;;;
44734;BME280;30462;52.446;-1.930;2023-04-15T05:04:18;100098.6211;;;;
44734;BME280;30462;52.446;-1.930;2023-04-15T05:05:17;100101.6055;;;;
44734;BME280;30462;52.446;-1.930;2023-04-15T05:06:18;100101.9063;;;;
44734;BME280;30462;52.446;-1.930;2023-04-15T05:07:17;100103.7969;;;;
44734;BME280;30462;52.446;-1.930;2023-04-15T05:08:18;100103.7656;;;;
44734;BME280;30462;52.446;-1.930;2023-04-15T05:09:18;100109.3203;;;;
44734;BME280;30462;52.446;-1.930;2023-04-15T05:10:18;100111.7578;;;;
44734;BME280;30462;52.446;-1.930;2023-04-15T05:11:18;100113.7539;;;;
44734;BME280;30462;52.446;-1.930;2023-04-15T05:12:18;100113.1055;;;;
44734;BME280;30462;52.446;-1.930;2023-04-15T05:13:18;100116.4688;;;;
44734;BME280;30462;52.446;-1.930;2023-04-15T05:14:18;100120.4648;;;;
44734;BME280;30462;52.446;-1.930;2023-04-15T05:15:18;100120.2109;;;;
44734;BME280;30462;52.446;-1.930;2023-04-15T05:16:17;100121.7852;;;;
44734;BME280;30462;52.446;-1.930;2023-04-15T05:17:18;100122.6172;;;;
44734;BME280;30462;52.446;-1.930;2023-04-15T05:18:18;100120.918;;;;
44734;BME280;30462;52.446;-1.930;2023-04-15T05:19:18;100124.8633;;;;
44734;BME280;30462;52.446;-1.930;2023-04-15T05:20:18;100120.1953;;;;
44734;BME280;30462;52.446;-1.930;2023-04-15T05:21:18;100126.5117;;;;
44734;BME280;30462;52.446;-1.930;2023-04-15T05:22:18;100129.0703;;;;
44734;BME280;30462;52.446;-1.930;2023-04-15T05:23:18;100128.6758;;;;
44734;BME280;30462;52.446;-1.930;2023-04-15T05:24:18;100131.1328;;;;
44734;BME280;30462;52.446;-1.930;2023-04-15T05:25:18;100136.3633;;;;
44734;BME280;30462;52.446;-1.930;2023-04-15T05:26:18;100133.8438;;;;
44734;BME280;30462;52.446;-1.930;2023-04-15T05:27:18;100135.2617;;;;
44734;BME280;30462;52.446;-1.930;2023-04-15T05:28:17;100141.8164;;;;
44734;BME280;30462;52.446;-1.930;2023-04-15T05:29:18;100141.5859;;;;
44734;BME280;30462;52.446;-1.930;2023-04-15T05:30:18;100143.7344;;;;
44734;BME280;30462;52.446;-1.930;2023-04-15T05:31:18;100145.3164;;;;
44734;BME280;30462;52.446;-1.930;2023-04-15T05:32:18;100148.6133;;;;
44734;BME280;30462;52.446;-1.930;2023-04-15T05:33:17;100151.2461;;;;
44734;BME280;30462;52.446;-1.930;2023-04-15T05:34:17;100152.4453;;;;
44734;BME280;30462;52.446;-1.930;2023-04-15T05:35:18;100157.1797;;;;
44734;BME280;30462;52.446;-1.930;2023-04-15T05:36:18;100160.8008;;;;
44734;BME280;30462;52.446;-1.930;2023-04-15T05:37:18;100166.4922;;;;
44734;BME280;30462;52.446;-1.930;2023-04-15T05:38:18;100167.0742;;;;
44734;BME280;30462;52.446;-1.930;2023-04-15T05:39:18;100167.2617;;;;
44734;BME280;30462;52.446;-1.930;2023-04-15T05:40:18;100170.625;;;;
44734;BME280;30462;52.446;-1.930;2023-04-15T05:41:18;100171.0469;;;;
44734;BME280;30462;52.446;-1.930;2023-04-15T05:42:18;100173.3867;;;;
44734;BME280;30462;52.446;-1.930;2023-04-15T05:43:18;100180.4336;;;;
44734;BME280;30462;52.446;-1.930;2023-04-15T05:44:18;100181.0859;;;;
44734;BME280;30462;52.446;-1.930;2023-04-15T05:45:18;100181.7578;;;;
44734;BME280;30462;52.446;-1.930;2023-04-15T05:46:17;100181.7344;;;;
44734;BME280;30462;52.446;-1.930;2023-04-15T05:47:18;100186.0625;;;;
44734;BME280;30462;52.446;-1.930;2023-04-15T05:48:18;100186.4258;;;;